sensor_id;sensor_type;location;lat;lon;timestamp;pressure;altitude;pressure_sealevel;temperature;humidity
57192;BME280;43052;52.588;13.396;2024-03-02T00:00:09;100189.47;;;7.89;90.76
57192;BME280;43052;52.588;13.396;2024-03-02T00:02:44;100190.31;;;7.93;90.86
57192;BME280;43052;52.588;13.396;2024-03-02T00:05:17;100177.31;;;7.91;90.64
57192;BME280;43052;52.588;13.396;2024-03-02T00:07:46;100181.63;;;7.94;90.43
57192;BME280;43052;52.588;13.396;2024-03-02T00:10:19;100175.59;;;7.89;90.59
57192;BME280;43052;52.588;13.396;2024-03-02T00:12:47;100179.91;;;7.90;90.74
57192;BME280;43052;52.588;13.396;2024-03-02T00:18:04;100177.31;;;7.83;90.88
57192;BME280;43052;52.588;13.396;2024-03-02T00:20:30;100183.44;;;7.79;91.07
57192;BME280;43052;52.588;13.396;2024-03-02T00:23:15;100179.06;;;7.80;91.49
57192;BME280;43052;52.588;13.396;2024-03-02T00:25:43;100154.78;;;7.81;91.09
57192;BME280;43052;52.588;13.396;2024-03-02T00:28:32;100174.72;;;7.88;91.29
57192;BME280;43052;52.588;13.396;2024-03-02T00:31:04;100157.34;;;7.92;91.15
57192;BME280;43052;52.588;13.396;2024-03-02T00:33:32;100163.41;;;7.97;90.94
57192;BME280;43052;52.588;13.396;2024-03-02T00:35:58;100163.41;;;7.97;90.87
57192;BME280;43052;52.588;13.396;2024-03-02T00:38:25;100159.94;;;7.93;91.08
57192;BME280;43052;52.588;13.396;2024-03-02T00:40:51;100164.28;;;7.96;91.22
57192;BME280;43052;52.588;13.396;2024-03-02T00:43:42;100166.00;;;7.97;90.88
57192;BME280;43052;52.588;13.396;2024-03-02T00:46:20;100159.91;;;8.01;90.78
57192;BME280;43052;52.588;13.396;2024-03-02T00:48:59;100164.22;;;8.04;90.38
57192;BME280;43052;52.588;13.396;2024-03-02T00:51:27;100162.47;;;8.06;90.22
57192;BME280;43052;52.588;13.396;2024-03-02T00:53:54;100159.88;;;8.06;90.24
57192;BME280;43052;52.588;13.396;2024-03-02T00:56:23;100157.28;;;8.03;90.20
57192;BME280;43052;52.588;13.396;2024-03-02T00:58:50;100162.47;;;8.06;90.24
57192;BME280;43052;52.588;13.396;2024-03-02T01:01:16;100159.00;;;8.07;90.10
57192;BME280;43052;52.588;13.396;2024-03-02T01:03:42;100165.06;;;8.10;89.94
57192;BME280;43052;52.588;13.396;2024-03-02T01:06:08;100157.25;;;8.07;90.05
57192;BME280;43052;52.588;13.396;2024-03-02T01:08:34;100160.75;;;8.11;90.04
57192;BME280;43052;52.588;13.396;2024-03-02T01:11:00;100159.81;;;8.16;89.89
57192;BME280;43052;52.588;13.396;2024-03-02T01:13:25;100161.56;;;8.16;90.17
57192;BME280;43052;52.588;13.396;2024-03-02T01:15:51;100155.53;;;8.11;90.25
57192;BME280;43052;52.588;13.396;2024-03-02T01:18:17;100159.81;;;8.16;90.13
57192;BME280;43052;52.588;13.396;2024-03-02T01:20:42;100157.19;;;8.21;90.28
57192;BME280;43052;52.588;13.396;2024-03-02T01:23:07;100154.56;;;8.24;90.23
57192;BME280;43052;52.588;13.396;2024-03-02T01:25:33;100152.84;;;8.26;90.04
57192;BME280;43052;52.588;13.396;2024-03-02T01:27:58;100147.66;;;8.22;89.69
57192;BME280;43052;52.588;13.396;2024-03-02T01:30:24;100148.50;;;8.25;90.01
57192;BME280;43052;52.588;13.396;2024-03-02T01:32:49;100159.78;;;8.27;89.90
57192;BME280;43052;52.588;13.396;2024-03-02T01:35:15;100142.41;;;8.26;89.69
57192;BME280;43052;52.588;13.396;2024-03-02T01:37:41;100144.09;;;8.30;89.67
57192;BME280;43052;52.588;13.396;2024-03-02T01:40:07;100138.00;;;8.33;89.49
57192;BME280;43052;52.588;13.396;2024-03-02T01:42:38;100141.50;;;8.34;89.63
57192;BME280;43052;52.588;13.396;2024-03-02T01:45:08;100149.28;;;8.38;89.87
57192;BME280;43052;52.588;13.396;2024-03-02T01:47:34;100138.84;;;8.40;89.93
57192;BME280;43052;52.588;13.396;2024-03-02T01:50:00;100144.91;;;8.43;89.71
57192;BME280;43052;52.588;13.396;2024-03-02T01:52:27;100138.84;;;8.48;89.92
57192;BME280;43052;52.588;13.396;2024-03-02T01:54:52;100129.25;;;8.48;89.83
57192;BME280;43052;52.588;13.396;2024-03-02T01:57:18;100119.72;;;8.44;89.75
57192;BME280;43052;52.588;13.396;2024-03-02T01:59:44;100116.22;;;8.48;89.96
57192;BME280;43052;52.588;13.396;2024-03-02T02:02:10;100118.00;;;8.48;89.72
57192;BME280;43052;52.588;13.396;2024-03-02T02:04:35;100112.75;;;8.46;90.21
57192;BME280;43052;52.588;13.396;2024-03-02T02:07:00;100104.97;;;8.43;89.91
57192;BME280;43052;52.588;13.396;2024-03-02T02:09:26;100111.03;;;8.43;89.76
57192;BME280;43052;52.588;13.396;2024-03-02T02:11:51;100101.50;;;8.41;89.88
57192;BME280;43052;52.588;13.396;2024-03-02T02:14:17;100095.44;;;8.37;90.10
57192;BME280;43052;52.588;13.396;2024-03-02T02:16:42;100105.84;;;8.40;90.07
57192;BME280;43052;52.588;13.396;2024-03-02T02:19:08;100093.69;;;8.38;89.91
57192;BME280;43052;52.588;13.396;2024-03-02T02:21:34;100095.44;;;8.37;89.99
57192;BME280;43052;52.588;13.396;2024-03-02T02:24:00;100098.91;;;8.38;90.13
57192;BME280;43052;52.588;13.396;2024-03-02T02:26:26;100098.03;;;8.39;90.42
57192;BME280;43052;52.588;13.396;2024-03-02T02:28:52;100096.31;;;8.39;90.15
57192;BME280;43052;52.588;13.396;2024-03-02T02:31:17;100086.75;;;8.35;90.08
57192;BME280;43052;52.588;13.396;2024-03-02T02:33:43;100090.22;;;8.40;90.43
57192;BME280;43052;52.588;13.396;2024-03-02T02:36:08;100090.22;;;8.37;90.15
57192;BME280;43052;52.588;13.396;2024-03-02T02:38:40;100092.84;;;8.36;90.37
57192;BME280;43052;52.588;13.396;2024-03-02T02:41:05;100086.88;;;8.23;90.49
57192;BME280;43052;52.588;13.396;2024-03-02T02:43:31;100089.50;;;8.16;91.19
57192;BME280;43052;52.588;13.396;2024-03-02T02:45:56;100099.09;;;8.08;91.61
57192;BME280;43052;52.588;13.396;2024-03-02T02:48:22;100093.03;;;8.05;92.19
57192;BME280;43052;52.588;13.396;2024-03-02T02:50:47;100096.56;;;8.00;92.75
57192;BME280;43052;52.588;13.396;2024-03-02T02:53:13;100091.34;;;8.00;93.05
57192;BME280;43052;52.588;13.396;2024-03-02T02:55:39;100101.69;;;8.08;93.19
57192;BME280;43052;52.588;13.396;2024-03-02T02:58:06;100106.03;;;8.09;93.30
57192;BME280;43052;52.588;13.396;2024-03-02T03:00:31;100101.72;;;8.04;93.47
57192;BME280;43052;52.588;13.396;2024-03-02T03:02:57;100106.09;;;8.00;93.97
57192;BME280;43052;52.588;13.396;2024-03-02T03:05:22;100106.94;;;7.99;94.68
57192;BME280;43052;52.588;13.396;2024-03-02T03:07:48;100107.84;;;7.99;94.92
57192;BME280;43052;52.588;13.396;2024-03-02T03:10:15;100106.94;;;8.02;95.21
57192;BME280;43052;52.588;13.396;2024-03-02T03:12:41;100107.81;;;8.04;95.72
57192;BME280;43052;52.588;13.396;2024-03-02T03:15:08;100106.06;;;8.08;96.10
57192;BME280;43052;52.588;13.396;2024-03-02T03:17:35;100106.03;;;8.11;96.20
57192;BME280;43052;52.588;13.396;2024-03-02T03:20:02;100108.63;;;8.14;96.36
57192;BME280;43052;52.588;13.396;2024-03-02T03:22:30;100105.13;;;8.16;96.77
57192;BME280;43052;52.588;13.396;2024-03-02T03:24:56;100102.50;;;8.20;96.95
57192;BME280;43052;52.588;13.396;2024-03-02T03:27:21;100100.72;;;8.26;97.13
57192;BME280;43052;52.588;13.396;2024-03-02T03:29:47;100106.75;;;8.31;97.15
57192;BME280;43052;52.588;13.396;2024-03-02T03:32:12;100103.28;;;8.36;97.20
57192;BME280;43052;52.588;13.396;2024-03-02T03:34:38;100106.72;;;8.39;97.49
57192;BME280;43052;52.588;13.396;2024-03-02T03:37:04;100104.94;;;8.46;97.49
57192;BME280;43052;52.588;13.396;2024-03-02T03:39:29;100102.34;;;8.48;97.58
57192;BME280;43052;52.588;13.396;2024-03-02T03:41:55;100104.03;;;8.52;97.90
57192;BME280;43052;52.588;13.396;2024-03-02T03:44:20;100099.66;;;8.58;97.81
57192;BME280;43052;52.588;13.396;2024-03-02T03:46:45;100097.00;;;8.63;97.99
57192;BME280;43052;52.588;13.396;2024-03-02T03:49:11;100101.31;;;8.72;97.86
57192;BME280;43052;52.588;13.396;2024-03-02T03:51:36;100090.84;;;8.76;97.52
57192;BME280;43052;52.588;13.396;2024-03-02T03:54:02;100097.72;;;8.82;97.58
57192;BME280;43052;52.588;13.396;2024-03-02T03:56:27;100097.63;;;8.93;97.55
57192;BME280;43052;52.588;13.396;2024-03-02T03:58:53;100088.91;;;8.96;97.38
57192;BME280;43052;52.588;13.396;2024-03-02T04:01:18;100101.03;;;9.00;97.21
57192;BME280;43052;52.588;13.396;2024-03-02T04:03:44;100099.31;;;8.97;96.75
57192;BME280;43052;52.588;13.396;2024-03-02T04:06:10;100101.94;;;8.99;96.96
57192;BME280;43052;52.588;13.396;2024-03-02T04:08:35;100094.16;;;8.94;96.92
57192;BME280;43052;52.588;13.396;2024-03-02T04:11:01;100104.63;;;8.88;97.05
57192;BME280;43052;52.588;13.396;2024-03-02T04:13:28;100098.59;;;8.83;97.19
57192;BME280;43052;52.588;13.396;2024-03-02T04:15:53;100104.69;;;8.82;98.02
57192;BME280;43052;52.588;13.396;2024-03-02T04:18:19;100111.66;;;8.80;98.07
57192;BME280;43052;52.588;13.396;2024-03-02T04:20:44;100103.84;;;8.81;98.51
57192;BME280;43052;52.588;13.396;2024-03-02T04:23:09;100112.53;;;8.78;98.72
57192;BME280;43052;52.588;13.396;2024-03-02T04:25:35;100106.41;;;8.84;98.94
57192;BME280;43052;52.588;13.396;2024-03-02T04:28:01;100099.44;;;8.83;99.03
57192;BME280;43052;52.588;13.396;2024-03-02T04:30:26;100104.59;;;8.91;99.01
57192;BME280;43052;52.588;13.396;2024-03-02T04:32:52;100108.09;;;8.90;99.00
57192;BME280;43052;52.588;13.396;2024-03-02T04:35:17;100111.47;;;9.00;99.14
57192;BME280;43052;52.588;13.396;2024-03-02T04:37:43;100113.19;;;9.02;99.27
57192;BME280;43052;52.588;13.396;2024-03-02T04:40:09;100109.63;;;9.08;99.22
57192;BME280;43052;52.588;13.396;2024-03-02T04:42:35;100114.00;;;9.07;99.17
57192;BME280;43052;52.588;13.396;2024-03-02T04:45:00;100120.91;;;9.13;99.17
57192;BME280;43052;52.588;13.396;2024-03-02T04:47:26;100120.91;;;9.16;99.15
57192;BME280;43052;52.588;13.396;2024-03-02T04:49:52;100117.41;;;9.16;99.14
57192;BME280;43052;52.588;13.396;2024-03-02T04:52:17;100118.25;;;9.19;99.14
57192;BME280;43052;52.588;13.396;2024-03-02T04:54:43;100120.00;;;9.17;99.32
57192;BME280;43052;52.588;13.396;2024-03-02T04:57:28;100126.03;;;9.24;99.11
57192;BME280;43052;52.588;13.396;2024-03-02T04:59:53;100130.34;;;9.25;99.33
57192;BME280;43052;52.588;13.396;2024-03-02T05:02:19;100126.84;;;9.28;98.78
57192;BME280;43052;52.588;13.396;2024-03-02T05:04:44;100129.44;;;9.31;99.28
57192;BME280;43052;52.588;13.396;2024-03-02T05:07:10;100124.22;;;9.31;99.04
57192;BME280;43052;52.588;13.396;2024-03-02T05:09:35;100132.03;;;9.31;99.19
57192;BME280;43052;52.588;13.396;2024-03-02T05:12:01;100136.38;;;9.32;99.18
57192;BME280;43052;52.588;13.396;2024-03-02T05:14:45;100138.97;;;9.33;99.20
57192;BME280;43052;52.588;13.396;2024-03-02T05:17:11;100139.84;;;9.32;99.51
57192;BME280;43052;52.588;13.396;2024-03-02T05:19:36;100141.59;;;9.30;99.59
57192;BME280;43052;52.588;13.396;2024-03-02T05:22:01;100144.19;;;9.33;99.62
57192;BME280;43052;52.588;13.396;2024-03-02T05:24:28;100144.16;;;9.35;99.57
57192;BME280;43052;52.588;13.396;2024-03-02T05:26:54;100148.50;;;9.37;99.73
57192;BME280;43052;52.588;13.396;2024-03-02T05:29:19;100152.81;;;9.40;99.53
57192;BME280;43052;52.588;13.396;2024-03-02T05:31:45;100149.34;;;9.41;99.50
57192;BME280;43052;52.588;13.396;2024-03-02T05:34:10;100150.19;;;9.43;99.50
57192;BME280;43052;52.588;13.396;2024-03-02T05:36:35;100157.91;;;9.51;99.58
57192;BME280;43052;52.588;13.396;2024-03-02T05:39:01;100160.53;;;9.51;99.56
57192;BME280;43052;52.588;13.396;2024-03-02T05:41:29;100162.28;;;9.52;99.34
57192;BME280;43052;52.588;13.396;2024-03-02T05:43:55;100161.41;;;9.51;99.44
57192;BME280;43052;52.588;13.396;2024-03-02T05:46:20;100166.59;;;9.54;99.39
57192;BME280;43052;52.588;13.396;2024-03-02T05:48:47;100161.47;;;9.47;99.16
57192;BME280;43052;52.588;13.396;2024-03-02T05:51:12;100175.31;;;9.52;99.17
57192;BME280;43052;52.588;13.396;2024-03-02T05:53:38;100171.00;;;9.48;99.35
57192;BME280;43052;52.588;13.396;2024-03-02T05:56:04;100168.41;;;9.46;99.08
57192;BME280;43052;52.588;13.396;2024-03-02T05:58:30;100174.53;;;9.44;99.17
57192;BME280;43052;52.588;13.396;2024-03-02T06:01:14;100176.25;;;9.46;99.39
57192;BME280;43052;52.588;13.396;2024-03-02T06:03:40;100187.50;;;9.53;99.18
57192;BME280;43052;52.588;13.396;2024-03-02T06:06:05;100196.19;;;9.55;99.29
57192;BME280;43052;52.588;13.396;2024-03-02T06:08:31;100183.13;;;9.53;99.09
57192;BME280;43052;52.588;13.396;2024-03-02T06:10:56;100193.53;;;9.60;99.00
57192;BME280;43052;52.588;13.396;2024-03-02T06:13:22;100191.78;;;9.59;98.57
57192;BME280;43052;52.588;13.396;2024-03-02T06:15:48;100196.97;;;9.60;98.75
57192;BME280;43052;52.588;13.396;2024-03-02T06:18:13;100190.91;;;9.58;98.59
57192;BME280;43052;52.588;13.396;2024-03-02T06:20:39;100188.31;;;9.56;98.46
57192;BME280;43052;52.588;13.396;2024-03-02T06:23:04;100196.13;;;9.58;98.33
57192;BME280;43052;52.588;13.396;2024-03-02T06:25:30;100195.25;;;9.59;98.30
57192;BME280;43052;52.588;13.396;2024-03-02T06:27:55;100195.25;;;9.59;98.24
57192;BME280;43052;52.588;13.396;2024-03-02T06:30:21;100194.34;;;9.63;98.20
57192;BME280;43052;52.588;13.396;2024-03-02T06:32:46;100191.72;;;9.62;97.65
57192;BME280;43052;52.588;13.396;2024-03-02T06:35:12;100194.31;;;9.65;97.96
57192;BME280;43052;52.588;13.396;2024-03-02T06:37:38;100198.66;;;9.69;97.76
57192;BME280;43052;52.588;13.396;2024-03-02T06:40:05;100193.41;;;9.70;97.67
57192;BME280;43052;52.588;13.396;2024-03-02T06:42:33;100187.28;;;9.70;97.29
57192;BME280;43052;52.588;13.396;2024-03-02T06:44:59;100181.25;;;9.68;97.19
57192;BME280;43052;52.588;13.396;2024-03-02T06:47:24;100184.69;;;9.71;96.78
57192;BME280;43052;52.588;13.396;2024-03-02T06:49:50;100178.63;;;9.68;96.52
57192;BME280;43052;52.588;13.396;2024-03-02T06:52:16;100196.81;;;9.76;96.56
57192;BME280;43052;52.588;13.396;2024-03-02T06:54:41;100194.19;;;9.76;96.65
57192;BME280;43052;52.588;13.396;2024-03-02T06:57:06;100191.50;;;9.83;96.78
57192;BME280;43052;52.588;13.396;2024-03-02T06:59:32;100198.38;;;9.94;96.45
57192;BME280;43052;52.588;13.396;2024-03-02T07:01:59;100197.41;;;10.01;96.15
57192;BME280;43052;52.588;13.396;2024-03-02T07:04:24;100195.59;;;10.04;96.07
57192;BME280;43052;52.588;13.396;2024-03-02T07:06:49;100201.59;;;10.13;95.73
57192;BME280;43052;52.588;13.396;2024-03-02T07:09:16;100204.19;;;10.16;95.59
57192;BME280;43052;52.588;13.396;2024-03-02T07:11:42;100203.34;;;10.14;95.50
57192;BME280;43052;52.588;13.396;2024-03-02T07:14:07;100208.56;;;10.14;95.31
57192;BME280;43052;52.588;13.396;2024-03-02T07:16:32;100209.47;;;10.10;95.21
57192;BME280;43052;52.588;13.396;2024-03-02T07:18:59;100225.16;;;10.10;95.30
57192;BME280;43052;52.588;13.396;2024-03-02T07:21:27;100216.41;;;10.14;95.18
57192;BME280;43052;52.588;13.396;2024-03-02T07:23:52;100215.53;;;10.12;95.21
57192;BME280;43052;52.588;13.396;2024-03-02T07:26:18;100216.44;;;10.12;95.22
57192;BME280;43052;52.588;13.396;2024-03-02T07:28:45;100211.09;;;10.20;95.03
57192;BME280;43052;52.588;13.396;2024-03-02T07:40:12;100236.13;;;10.37;93.88
57192;BME280;43052;52.588;13.396;2024-03-02T07:42:39;100235.38;;;10.30;93.08
57192;BME280;43052;52.588;13.396;2024-03-02T07:45:05;100238.94;;;10.24;93.54
57192;BME280;43052;52.588;13.396;2024-03-02T07:47:33;100246.72;;;10.27;93.28
57192;BME280;43052;52.588;13.396;2024-03-02T07:49:58;100243.28;;;10.25;93.25
57192;BME280;43052;52.588;13.396;2024-03-02T07:52:23;100250.34;;;10.17;92.86
57192;BME280;43052;52.588;13.396;2024-03-02T07:54:49;100262.56;;;10.15;93.11
57192;BME280;43052;52.588;13.396;2024-03-02T07:57:14;100269.59;;;10.08;92.98
57192;BME280;43052;52.588;13.396;2024-03-02T07:59:40;100266.13;;;10.08;92.95
57192;BME280;43052;52.588;13.396;2024-03-02T08:02:06;100273.03;;;10.13;93.19
57192;BME280;43052;52.588;13.396;2024-03-02T08:04:32;100266.94;;;10.11;92.55
57192;BME280;43052;52.588;13.396;2024-03-02T08:06:57;100282.59;;;10.13;92.53
57192;BME280;43052;52.588;13.396;2024-03-02T08:09:23;100279.13;;;10.12;92.54
57192;BME280;43052;52.588;13.396;2024-03-02T08:11:48;100286.03;;;10.16;92.54
57192;BME280;43052;52.588;13.396;2024-03-02T08:14:14;100287.72;;;10.22;92.29
57192;BME280;43052;52.588;13.396;2024-03-02T08:16:40;100280.75;;;10.21;92.04
57192;BME280;43052;52.588;13.396;2024-03-02T08:19:05;100279.75;;;10.33;91.96
57192;BME280;43052;52.588;13.396;2024-03-02T08:21:31;100284.94;;;10.38;91.36
57192;BME280;43052;52.588;13.396;2024-03-02T08:23:57;100288.41;;;10.40;91.56
57192;BME280;43052;52.588;13.396;2024-03-02T08:26:23;100290.13;;;10.44;90.64
57192;BME280;43052;52.588;13.396;2024-03-02T08:28:49;100281.47;;;10.34;90.25
57192;BME280;43052;52.588;13.396;2024-03-02T08:31:14;100290.25;;;10.30;90.12
57192;BME280;43052;52.588;13.396;2024-03-02T08:33:40;100286.00;;;10.19;90.24
57192;BME280;43052;52.588;13.396;2024-03-02T08:36:06;100295.63;;;10.16;90.19
57192;BME280;43052;52.588;13.396;2024-03-02T08:38:31;100293.97;;;10.07;90.99
57192;BME280;43052;52.588;13.396;2024-03-02T08:40:57;100294.97;;;9.98;90.46
57192;BME280;43052;52.588;13.396;2024-03-02T08:43:23;100302.78;;;9.98;90.88
57192;BME280;43052;52.588;13.396;2024-03-02T08:45:48;100291.41;;;10.04;91.28
57192;BME280;43052;52.588;13.396;2024-03-02T08:48:14;100301.75;;;10.15;91.28
57192;BME280;43052;52.588;13.396;2024-03-02T08:50:40;100288.69;;;10.12;90.16
57192;BME280;43052;52.588;13.396;2024-03-02T08:53:05;100290.50;;;10.07;90.50
57192;BME280;43052;52.588;13.396;2024-03-02T08:55:31;100306.16;;;10.08;90.25
57192;BME280;43052;52.588;13.396;2024-03-02T08:57:56;100311.41;;;10.05;90.45
57192;BME280;43052;52.588;13.396;2024-03-02T09:00:23;100311.41;;;10.07;89.96
57192;BME280;43052;52.588;13.396;2024-03-02T09:02:49;100313.94;;;10.13;90.49
57192;BME280;43052;52.588;13.396;2024-03-02T09:05:14;100313.03;;;10.18;90.03
57192;BME280;43052;52.588;13.396;2024-03-02T09:07:40;100320.09;;;10.10;89.39
57192;BME280;43052;52.588;13.396;2024-03-02T09:10:06;100317.53;;;10.02;89.95
57192;BME280;43052;52.588;13.396;2024-03-02T09:12:32;100323.59;;;10.06;89.69
57192;BME280;43052;52.588;13.396;2024-03-02T09:14:58;100317.50;;;10.06;89.68
57192;BME280;43052;52.588;13.396;2024-03-02T09:17:23;100320.13;;;10.06;89.74
57192;BME280;43052;52.588;13.396;2024-03-02T09:19:49;100324.50;;;10.03;89.63
57192;BME280;43052;52.588;13.396;2024-03-02T09:22:18;100333.09;;;10.15;89.89
57192;BME280;43052;52.588;13.396;2024-03-02T09:24:44;100323.44;;;10.22;89.18
57192;BME280;43052;52.588;13.396;2024-03-02T09:27:09;100337.34;;;10.24;89.11
57192;BME280;43052;52.588;13.396;2024-03-02T09:29:35;100331.25;;;10.23;88.98
57192;BME280;43052;52.588;13.396;2024-03-02T09:32:00;100333.00;;;10.24;88.78
57192;BME280;43052;52.588;13.396;2024-03-02T09:34:25;100333.78;;;10.32;88.89
57192;BME280;43052;52.588;13.396;2024-03-02T09:36:51;100324.19;;;10.34;88.82
57192;BME280;43052;52.588;13.396;2024-03-02T09:39:17;100327.50;;;10.52;88.19
57192;BME280;43052;52.588;13.396;2024-03-02T09:41:43;100325.59;;;10.63;87.32
57192;BME280;43052;52.588;13.396;2024-03-02T09:44:09;100325.31;;;10.85;87.87
57192;BME280;43052;52.588;13.396;2024-03-02T09:46:35;100320.50;;;11.17;87.48
57192;BME280;43052;52.588;13.396;2024-03-02T09:49:02;100325.25;;;11.49;87.13
57192;BME280;43052;52.588;13.396;2024-03-02T09:51:28;100322.81;;;11.88;86.22
57192;BME280;43052;52.588;13.396;2024-03-02T09:53:54;100322.88;;;12.34;85.05
57192;BME280;43052;52.588;13.396;2024-03-02T09:56:21;100319.16;;;12.87;83.52
57192;BME280;43052;52.588;13.396;2024-03-02T09:58:47;100323.50;;;13.27;80.71
57192;BME280;43052;52.588;13.396;2024-03-02T10:01:12;100317.53;;;13.58;79.29
57192;BME280;43052;52.588;13.396;2024-03-02T10:03:38;100319.19;;;13.97;77.51
57192;BME280;43052;52.588;13.396;2024-03-02T10:06:36;100313.69;;;14.37;75.98
57192;BME280;43052;52.588;13.396;2024-03-02T10:09:02;100306.84;;;14.93;73.98
57192;BME280;43052;52.588;13.396;2024-03-02T10:14:18;100316.00;;;15.37;68.50
57192;BME280;43052;52.588;13.396;2024-03-02T10:16:44;100322.28;;;15.32;66.31
57192;BME280;43052;52.588;13.396;2024-03-02T10:19:28;100320.06;;;15.18;67.73
57192;BME280;43052;52.588;13.396;2024-03-02T10:21:58;100326.25;;;15.17;66.01
57192;BME280;43052;52.588;13.396;2024-03-02T10:24:25;100319.19;;;14.91;65.37
57192;BME280;43052;52.588;13.396;2024-03-02T10:26:51;100317.09;;;15.02;65.69
57192;BME280;43052;52.588;13.396;2024-03-02T10:29:17;100319.69;;;15.31;65.46
57192;BME280;43052;52.588;13.396;2024-03-02T10:31:44;100309.69;;;15.67;64.89
57192;BME280;43052;52.588;13.396;2024-03-02T10:34:12;100320.84;;;16.03;63.86
57192;BME280;43052;52.588;13.396;2024-03-02T10:36:42;100317.69;;;15.91;62.18
57192;BME280;43052;52.588;13.396;2024-03-02T10:39:08;100313.31;;;15.92;63.10
57192;BME280;43052;52.588;13.396;2024-03-02T10:41:36;100313.75;;;16.05;63.09
57192;BME280;43052;52.588;13.396;2024-03-02T10:44:03;100311.78;;;16.10;61.33
57192;BME280;43052;52.588;13.396;2024-03-02T10:46:30;100318.78;;;15.59;60.14
57192;BME280;43052;52.588;13.396;2024-03-02T10:49:00;100312.44;;;15.11;60.90
57192;BME280;43052;52.588;13.396;2024-03-02T10:51:30;100305.31;;;14.84;61.42
57192;BME280;43052;52.588;13.396;2024-03-02T10:54:02;100320.75;;;14.97;62.49
57192;BME280;43052;52.588;13.396;2024-03-02T10:56:31;100305.75;;;14.99;62.20
57192;BME280;43052;52.588;13.396;2024-03-02T10:59:16;100301.78;;;15.14;61.35
57192;BME280;43052;52.588;13.396;2024-03-02T11:01:47;100303.22;;;15.51;60.76
57192;BME280;43052;52.588;13.396;2024-03-02T11:04:12;100309.81;;;15.64;59.65
57192;BME280;43052;52.588;13.396;2024-03-02T11:06:49;100305.00;;;15.77;58.29
57192;BME280;43052;52.588;13.396;2024-03-02T11:09:20;100312.84;;;15.79;59.00
57192;BME280;43052;52.588;13.396;2024-03-02T11:11:52;100309.44;;;15.75;58.99
57192;BME280;43052;52.588;13.396;2024-03-02T11:14:23;100302.97;;;15.59;59.54
57192;BME280;43052;52.588;13.396;2024-03-02T11:16:50;100306.59;;;15.29;59.67
57192;BME280;43052;52.588;13.396;2024-03-02T11:19:16;100303.25;;;14.94;59.17
57192;BME280;43052;52.588;13.396;2024-03-02T11:21:42;100310.94;;;14.73;59.54
57192;BME280;43052;52.588;13.396;2024-03-02T11:26:52;100310.97;;;14.40;59.92
57192;BME280;43052;52.588;13.396;2024-03-02T11:32:03;100305.31;;;14.54;59.86
57192;BME280;43052;52.588;13.396;2024-03-02T11:34:30;100308.09;;;14.50;59.05
57192;BME280;43052;52.588;13.396;2024-03-02T11:36:56;100309.16;;;14.42;59.57
57192;BME280;43052;52.588;13.396;2024-03-02T11:39:22;100309.75;;;14.52;60.15
57192;BME280;43052;52.588;13.396;2024-03-02T11:41:48;100306.44;;;14.77;59.83
57192;BME280;43052;52.588;13.396;2024-03-02T11:44:14;100303.25;;;14.94;59.97
57192;BME280;43052;52.588;13.396;2024-03-02T11:46:40;100306.19;;;15.13;59.64
57192;BME280;43052;52.588;13.396;2024-03-02T11:49:05;100305.66;;;15.30;59.09
57192;BME280;43052;52.588;13.396;2024-03-02T11:51:33;100302.53;;;15.46;58.37
57192;BME280;43052;52.588;13.396;2024-03-02T11:54:00;100306.06;;;15.45;57.67
57192;BME280;43052;52.588;13.396;2024-03-02T11:56:28;100306.84;;;15.48;57.80
57192;BME280;43052;52.588;13.396;2024-03-02T11:58:54;100307.34;;;15.60;58.49
57192;BME280;43052;52.588;13.396;2024-03-02T12:01:19;100310.97;;;15.56;56.96
57192;BME280;43052;52.588;13.396;2024-03-02T12:03:45;100320.84;;;15.49;57.57
57192;BME280;43052;52.588;13.396;2024-03-02T12:06:11;100313.38;;;15.63;57.76
57192;BME280;43052;52.588;13.396;2024-03-02T12:08:38;100312.91;;;15.77;56.04
57192;BME280;43052;52.588;13.396;2024-03-02T12:11:04;100311.59;;;15.64;55.19
57192;BME280;43052;52.588;13.396;2024-03-02T12:13:31;100308.59;;;15.48;55.97
57192;BME280;43052;52.588;13.396;2024-03-02T12:15:57;100302.47;;;15.47;55.83
57192;BME280;43052;52.588;13.396;2024-03-02T12:18:23;100312.47;;;15.64;55.96
57192;BME280;43052;52.588;13.396;2024-03-02T12:20:49;100299.44;;;15.87;55.44
57192;BME280;43052;52.588;13.396;2024-03-02T12:23:18;100301.25;;;15.85;53.34
57192;BME280;43052;52.588;13.396;2024-03-02T12:25:44;100304.44;;;15.67;54.02
57192;BME280;43052;52.588;13.396;2024-03-02T12:28:10;100296.06;;;15.55;54.35
57192;BME280;43052;52.588;13.396;2024-03-02T12:30:36;100292.63;;;15.52;54.09
57192;BME280;43052;52.588;13.396;2024-03-02T12:33:01;100282.09;;;15.52;54.33
57192;BME280;43052;52.588;13.396;2024-03-02T12:35:27;100279.91;;;15.65;54.00
57192;BME280;43052;52.588;13.396;2024-03-02T12:37:53;100285.88;;;15.97;54.18
57192;BME280;43052;52.588;13.396;2024-03-02T12:40:19;100282.41;;;15.95;52.94
57192;BME280;43052;52.588;13.396;2024-03-02T12:42:47;100287.22;;;15.82;52.37
57192;BME280;43052;52.588;13.396;2024-03-02T12:45:13;100285.06;;;15.69;52.23
57192;BME280;43052;52.588;13.396;2024-03-02T12:47:40;100287.94;;;15.62;53.53
57192;BME280;43052;52.588;13.396;2024-03-02T12:50:07;100289.28;;;15.74;52.82
57192;BME280;43052;52.588;13.396;2024-03-02T12:52:32;100287.94;;;15.88;52.64
57192;BME280;43052;52.588;13.396;2024-03-02T12:55:00;100285.91;;;15.96;52.42
57192;BME280;43052;52.588;13.396;2024-03-02T12:57:28;100290.97;;;16.02;52.50
57192;BME280;43052;52.588;13.396;2024-03-02T13:00:06;100289.84;;;16.09;51.11
57192;BME280;43052;52.588;13.396;2024-03-02T13:02:36;100278.72;;;15.74;50.95